Time;durP1;ratioP1;P1;durP2;ratioP2;P2;SDS_P1;SDS_P2;PMS_P1;PMS_P2;Temp;Humidity;BMP_temperature;BMP_pressure;BME280_temperature;BME280_humidity;BME280_pressure;Samples;Min_cycle;Max_cycle;Signal;HPM_P1;HPM_P2
2022/07/10 00:01:08;;;;;;;7.20;5.63;;;;;;;25.48;46.04;100359.44;4158721;28;20228;-69
2022/07/10 00:03:10;;;;;;;7.50;6.00;;;;;;;25.63;45.43;100346.09;4157396;28;20323;-69
2022/07/10 00:05:13;;;;;;;7.70;7.00;;;;;;;25.41;46.25;100345.97;4154923;28;20733;-73
2022/07/10 00:07:20;;;;;;;7.97;6.95;;;;;;;25.09;46.57;100348.28;4141811;28;20235;-69
2022/07/10 00:09:22;;;;;;;9.27;6.63;;;;;;;25.32;46.24;100345.50;4142435;28;20295;-68
2022/07/10 00:11:23;;;;;;;5.00;4.18;;;;;;;25.44;45.85;100334.59;4145298;28;20772;-69
2022/07/10 00:13:25;;;;;;;5.82;4.30;;;;;;;24.94;46.87;100349.66;4144733;28;20237;-69
2022/07/10 00:15:27;;;;;;;6.35;4.20;;;;;;;25.34;45.93;100326.19;4144017;28;20229;-68
2022/07/10 00:17:29;;;;;;;7.70;4.22;;;;;;;25.20;46.29;100333.84;4144508;28;20233;-69
2022/07/10 00:19:30;;;;;;;6.13;4.10;;;;;;;25.13;46.48;100327.72;4144252;28;20296;-68
2022/07/10 00:21:32;;;;;;;5.40;3.80;;;;;;;24.88;47.29;100333.47;4151634;28;20288;-69
2022/07/10 00:23:33;;;;;;;5.20;4.00;;;;;;;25.08;46.98;100331.16;4144547;28;20284;-68
2022/07/10 00:25:35;;;;;;;4.75;3.83;;;;;;;24.23;48.15;100324.41;4143486;28;20233;-69
2022/07/10 00:27:37;;;;;;;4.25;3.85;;;;;;;24.65;47.38;100325.09;4145185;28;20240;-69
2022/07/10 00:29:39;;;;;;;4.60;3.83;;;;;;;24.97;47.01;100321.13;4144368;28;20295;-69
2022/07/10 00:31:40;;;;;;;5.10;4.18;;;;;;;24.96;46.57;100317.59;4143608;28;20629;-69
2022/07/10 00:33:42;;;;;;;5.95;4.03;;;;;;;24.77;47.43;100302.53;4145189;28;20291;-69
2022/07/10 00:35:44;;;;;;;4.88;3.80;;;;;;;24.85;46.81;100308.41;4144569;28;20326;-69
2022/07/10 00:37:46;;;;;;;5.30;4.13;;;;;;;25.14;46.58;100305.72;4144435;28;20233;-69
2022/07/10 00:39:48;;;;;;;5.07;3.97;;;;;;;24.57;47.24;100316.47;4144367;28;20776;-69
2022/07/10 00:41:50;;;;;;;4.57;3.95;;;;;;;24.96;46.67;100305.91;4144137;28;20229;-68
2022/07/10 00:43:52;;;;;;;6.07;4.20;;;;;;;24.81;46.83;100312.66;4143834;28;20291;-69
2022/07/10 00:45:54;;;;;;;4.88;3.78;;;;;;;24.55;47.37;100310.44;4143684;28;20245;-69
2022/07/10 00:47:56;;;;;;;6.10;4.30;;;;;;;24.79;46.95;100309.34;4144347;28;20249;-68
2022/07/10 00:49:58;;;;;;;4.55;4.15;;;;;;;24.49;47.42;100314.94;4152864;28;20232;-68
2022/07/10 00:52:01;;;;;;;7.40;4.50;;;;;;;24.76;47.12;100304.38;4158633;28;20271;-69
2022/07/10 00:54:04;;;;;;;5.10;4.05;;;;;;;24.68;46.81;100315.59;4160642;28;20701;-69
2022/07/10 00:56:06;;;;;;;6.22;4.30;;;;;;;24.76;46.91;100319.88;4160093;28;20240;-69
2022/07/10 00:58:10;;;;;;;4.75;4.30;;;;;;;24.31;47.89;100315.88;4161032;28;20232;-69
2022/07/10 01:00:13;;;;;;;6.03;4.60;;;;;;;24.06;47.79;100314.22;4159135;28;20232;-69
2022/07/10 01:02:16;;;;;;;4.55;3.70;;;;;;;24.60;47.07;100316.81;4160847;28;20232;-69
2022/07/10 01:04:18;;;;;;;4.95;4.05;;;;;;;23.82;47.68;100331.53;4160600;28;20700;-69
2022/07/10 01:06:20;;;;;;;6.93;4.15;;;;;;;24.17;48.00;100307.16;4156443;28;20229;-69
2022/07/10 01:08:21;;;;;;;5.35;4.30;;;;;;;23.71;48.33;100316.88;4144889;28;20726;-70
2022/07/10 01:10:23;;;;;;;5.32;4.13;;;;;;;23.17;49.32;100314.88;4143660;28;20232;-69
2022/07/10 01:12:27;;;;;;;5.80;4.32;;;;;;;22.96;49.55;100312.66;4143624;28;20709;-68
2022/07/10 01:14:30;;;;;;;5.07;3.72;;;;;;;23.27;48.88;100302.69;4144049;28;20229;-68
2022/07/10 01:16:32;;;;;;;6.37;4.23;;;;;;;23.02;49.40;100300.91;4143463;28;20233;-69
2022/07/10 01:18:33;;;;;;;4.30;3.80;;;;;;;23.16;49.11;100305.09;4143455;28;20232;-69
2022/07/10 01:20:35;;;;;;;4.17;3.70;;;;;;;23.33;48.56;100293.59;4149901;28;20201;-68
2022/07/10 01:22:37;;;;;;;4.37;3.77;;;;;;;22.80;49.58;100293.22;4144701;28;20217;-68
2022/07/10 01:24:39;;;;;;;6.43;4.07;;;;;;;23.28;48.30;100290.75;4142263;28;20247;-68
2022/07/10 01:26:42;;;;;;;5.20;3.80;;;;;;;23.42;48.32;100294.94;4143235;28;20241;-68
2022/07/10 01:28:45;;;;;;;4.53;3.60;;;;;;;23.33;48.10;100301.75;4144099;28;20233;-69
2022/07/10 01:30:48;;;;;;;6.10;4.00;;;;;;;23.21;48.32;100309.84;4144341;28;20286;-68
2022/07/10 01:32:50;;;;;;;6.10;3.77;;;;;;;22.99;48.62;100299.47;4143685;28;20287;-69
2022/07/10 01:34:51;;;;;;;4.70;3.53;;;;;;;23.15;48.35;100303.44;4145191;28;21021;-69
2022/07/10 01:36:53;;;;;;;4.07;3.63;;;;;;;22.94;48.52;100318.31;4146101;28;21003;-69
2022/07/10 01:38:56;;;;;;;4.80;3.50;;;;;;;22.51;49.28;100326.47;4145110;28;20241;-69
2022/07/10 01:40:58;;;;;;;4.53;3.07;;;;;;;22.59;49.16;100316.19;4143685;28;20335;-69
2022/07/10 01:43:00;;;;;;;3.50;3.20;;;;;;;22.81;48.64;100313.84;4143395;28;20295;-68
2022/07/10 01:45:01;;;;;;;5.63;3.53;;;;;;;22.91;48.41;100309.78;4142711;28;20726;-69
2022/07/10 01:47:08;;;;;;;4.23;3.57;;;;;;;22.63;48.62;100322.81;4143657;28;20245;-69
2022/07/10 01:49:10;;;;;;;6.33;3.20;;;;;;;22.92;48.05;100322.28;4147214;28;20232;-69
2022/07/10 01:51:12;;;;;;;4.70;3.20;;;;;;;23.16;47.74;100312.41;4158732;28;20233;-69
2022/07/10 01:53:14;;;;;;;4.23;2.93;;;;;;;22.21;49.00;100329.88;4159472;28;20233;-69
2022/07/10 01:55:16;;;;;;;3.10;2.80;;;;;;;22.68;48.42;100310.47;4159347;28;20240;-69
2022/07/10 01:57:18;;;;;;;5.27;3.37;;;;;;;22.92;47.60;100314.16;4159493;28;20233;-68
2022/07/10 01:59:19;;;;;;;8.07;3.40;;;;;;;22.35;48.90;100317.06;4159858;28;20705;-69
2022/07/10 02:01:21;;;;;;;4.53;3.70;;;;;;;23.18;47.08;100304.84;4159975;28;20228;-69
2022/07/10 02:05:43;;;;;;;4.63;3.47;;;;;;;23.19;46.84;100333.66;4158699;28;20310;-69
2022/07/10 02:07:44;;;;;;;5.77;3.03;;;;;;;22.39;48.11;100345.34;4146224;28;20245;-69
2022/07/10 02:09:46;;;;;;;4.87;2.63;;;;;;;23.08;46.90;100343.41;4142827;28;20310;-69
2022/07/10 02:11:48;;;;;;;4.50;3.83;;;;;;;23.25;46.75;100340.88;4136045;28;20241;-68
2022/07/10 02:13:50;;;;;;;4.70;3.77;;;;;;;22.74;47.51;100342.94;4143648;28;21044;-69
2022/07/10 02:15:52;;;;;;;4.33;3.50;;;;;;;23.29;46.66;100349.41;4157983;28;20236;-68
2022/07/10 02:17:53;;;;;;;4.57;3.30;;;;;;;23.22;46.57;100345.94;4160022;28;20232;-69
2022/07/10 02:19:55;;;;;;;4.13;3.27;;;;;;;22.74;47.56;100347.50;4159523;28;20233;-69
2022/07/10 02:21:57;;;;;;;3.87;3.00;;;;;;;22.58;47.75;100347.03;4148986;28;20996;-69
2022/07/10 02:23:58;;;;;;;3.97;3.00;;;;;;;22.64;47.79;100350.72;4143087;28;20295;-68
2022/07/10 02:26:00;;;;;;;6.87;3.53;;;;;;;21.95;48.81;100350.72;4141929;28;20272;-68
2022/07/10 02:28:02;;;;;;;6.87;3.40;;;;;;;22.20;48.60;100330.91;4142508;28;20241;-69
2022/07/10 02:30:05;;;;;;;5.07;3.17;;;;;;;21.70;49.36;100335.28;4142475;28;20233;-68
2022/07/10 02:32:07;;;;;;;4.53;3.00;;;;;;;21.12;49.96;100357.81;4142540;28;20267;-69
2022/07/10 02:34:10;;;;;;;5.23;2.90;;;;;;;21.25;49.80;100348.81;4142292;28;20225;-69
2022/07/10 02:36:12;;;;;;;6.13;2.70;;;;;;;22.00;48.72;100331.94;4142447;28;20601;-68
2022/07/10 02:38:14;;;;;;;3.57;2.50;;;;;;;21.95;48.46;100331.78;4142356;28;21009;-69
2022/07/10 02:40:15;;;;;;;6.30;2.70;;;;;;;21.91;48.49;100335.94;4143294;28;20302;-69
2022/07/10 02:42:17;;;;;;;4.27;3.33;;;;;;;21.81;48.61;100336.44;4142777;28;20241;-69
2022/07/10 02:44:19;;;;;;;5.27;2.60;;;;;;;22.07;48.02;100332.69;4141860;28;20303;-68
2022/07/10 02:46:20;;;;;;;3.17;2.10;;;;;;;22.22;47.81;100332.38;4141973;28;20265;-68
2022/07/10 02:48:22;;;;;;;4.43;2.70;;;;;;;22.24;47.78;100335.69;4142186;28;20657;-69
2022/07/10 02:50:24;;;;;;;3.83;2.70;;;;;;;22.42;47.29;100342.19;4154514;28;20278;-68
2022/07/10 02:52:25;;;;;;;4.63;2.53;;;;;;;22.34;47.35;100354.16;4158671;28;20651;-69
2022/07/10 02:54:27;;;;;;;6.90;2.53;;;;;;;22.15;47.41;100352.41;4158879;28;20665;-68
2022/07/10 02:56:29;;;;;;;7.30;2.80;;;;;;;21.87;48.10;100346.38;4157001;28;20232;-70
2022/07/10 02:58:31;;;;;;;3.23;2.40;;;;;;;21.70;48.37;100358.81;4159413;28;20278;-69
2022/07/10 03:00:33;;;;;;;4.30;2.63;;;;;;;22.05;47.94;100340.22;4158961;28;20294;-68
2022/07/10 03:02:34;;;;;;;2.67;2.33;;;;;;;21.98;47.90;100349.44;4158460;28;20278;-69
2022/07/10 03:04:37;;;;;;;4.93;2.70;;;;;;;21.83;48.25;100355.16;4158548;28;20211;-69
2022/07/10 03:06:38;;;;;;;3.50;2.60;;;;;;;22.55;46.75;100333.13;4153505;28;20225;-69
2022/07/10 03:08:41;;;;;;;18.10;3.23;;;;;;;21.48;48.97;100361.81;4142704;28;20287;-69
2022/07/10 03:10:44;;;;;;;4.67;2.70;;;;;;;21.81;48.21;100336.44;4142752;28;20308;-69
2022/07/10 03:12:46;;;;;;;4.23;2.37;;;;;;;21.78;48.58;100336.03;4141461;28;20295;-69
2022/07/10 03:14:48;;;;;;;6.10;2.60;;;;;;;21.88;48.08;100341.78;4133240;28;20319;-70
2022/07/10 03:16:49;;;;;;;3.70;2.50;;;;;;;21.86;47.89;100355.56;4142524;28;20229;-69
2022/07/10 03:18:51;;;;;;;4.03;2.50;;;;;;;22.24;47.11;100343.81;4142352;28;20791;-69
2022/07/10 03:20:53;;;;;;;4.37;2.40;;;;;;;21.67;48.08;100364.66;4150290;28;20263;-68
2022/07/10 03:22:54;;;;;;;3.33;2.50;;;;;;;21.64;48.00;100352.38;4142922;28;20287;-69
2022/07/10 03:24:56;;;;;;;5.53;2.63;;;;;;;21.49;48.63;100355.34;4141540;28;20698;-69
2022/07/10 03:26:57;;;;;;;6.20;2.60;;;;;;;21.67;48.09;100349.22;4143113;28;20267;-68
2022/07/10 03:28:59;;;;;;;2.93;2.47;;;;;;;20.88;49.83;100359.31;4142756;28;20229;-68
2022/07/10 03:31:01;;;;;;;3.87;2.10;;;;;;;21.60;48.67;100345.72;4142073;28;20291;-68
2022/07/10 03:33:03;;;;;;;5.30;2.63;;;;;;;21.18;48.87;100364.25;4141747;28;20239;-69
2022/07/10 03:35:05;;;;;;;4.87;2.63;;;;;;;21.81;48.06;100351.84;4140772;28;20307;-68
2022/07/10 03:37:07;;;;;;;4.97;2.80;;;;;;;22.17;47.26;100353.03;4141880;28;20237;-69
2022/07/10 03:39:08;;;;;;;5.10;2.60;;;;;;;22.19;47.25;100346.34;4142785;28;20706;-68
2022/07/10 03:41:10;;;;;;;6.47;3.10;;;;;;;21.44;48.53;100375.97;4142028;28;20237;-68
2022/07/10 03:43:11;;;;;;;4.27;2.50;;;;;;;21.55;48.38;100373.41;4141998;28;20233;-67
2022/07/10 03:45:13;;;;;;;4.73;2.70;;;;;;;21.76;47.85;100371.44;4143016;28;20702;-68
2022/07/10 03:47:15;;;;;;;4.10;2.60;;;;;;;21.77;47.77;100367.69;4145227;28;20233;-69
2022/07/10 03:49:17;;;;;;;2.53;2.10;;;;;;;21.59;48.16;100376.50;4148703;28;20683;-68
2022/07/10 03:51:18;;;;;;;3.20;2.40;;;;;;;20.89;49.07;100401.53;4161549;28;20652;-68
2022/07/10 03:53:20;;;;;;;5.20;2.70;;;;;;;21.41;48.46;100376.41;4160741;28;20225;-69
2022/07/10 03:55:22;;;;;;;4.70;2.73;;;;;;;21.86;47.74;100342.00;4161037;28;20236;-69
2022/07/10 03:59:43;;;;;;;4.57;2.70;;;;;;;20.92;49.35;100359.72;4145265;28;20819;-68
2022/07/10 04:01:45;;;;;;;5.10;2.77;;;;;;;21.71;47.93;100360.44;4145142;28;20237;-68
2022/07/10 04:03:47;;;;;;;3.93;2.40;;;;;;;21.83;47.71;100366.00;4144581;28;20233;-68
2022/07/10 04:05:48;;;;;;;3.30;2.40;;;;;;;21.78;47.81;100373.94;4136359;28;20772;-69
2022/07/10 04:07:50;;;;;;;3.83;2.70;;;;;;;21.39;48.27;100400.97;4146012;28;20237;-68
2022/07/10 04:09:52;;;;;;;3.77;2.40;;;;;;;22.00;47.38;100377.97;4145513;28;20233;-68
2022/07/10 04:11:53;;;;;;;3.80;2.70;;;;;;;21.57;48.04;100394.84;4144426;28;20295;-68
2022/07/10 04:13:55;;;;;;;6.20;2.83;;;;;;;21.60;48.35;100375.47;4145101;28;20237;-69
2022/07/10 04:15:57;;;;;;;3.77;2.60;;;;;;;21.46;48.51;100387.41;4144624;28;20307;-68
2022/07/10 04:17:58;;;;;;;3.47;2.30;;;;;;;21.71;48.10;100369.41;4161034;28;20256;-69
2022/07/10 04:20:00;;;;;;;7.50;2.70;;;;;;;21.65;48.03;100383.00;4161188;28;20257;-69
2022/07/10 04:22:02;;;;;;;7.97;3.17;;;;;;;21.21;49.36;100368.38;4150622;28;20233;-69
2022/07/10 04:24:04;;;;;;;5.17;2.43;;;;;;;21.57;48.44;100366.97;4144278;28;20237;-69
2022/07/10 04:26:07;;;;;;;3.63;2.30;;;;;;;21.50;48.47;100359.72;4144883;28;20244;-69
2022/07/10 04:28:09;;;;;;;5.47;2.20;;;;;;;21.42;48.92;100364.53;4143240;28;20295;-68
2022/07/10 04:30:11;;;;;;;3.43;2.43;;;;;;;21.77;47.98;100369.59;4144389;28;20661;-68
2022/07/10 04:32:13;;;;;;;3.60;2.30;;;;;;;21.49;48.62;100366.16;4144822;28;20225;-69
2022/07/10 04:34:14;;;;;;;3.90;1.93;;;;;;;21.78;48.37;100358.56;4144326;28;20229;-68
2022/07/10 04:36:16;;;;;;;2.40;2.10;;;;;;;20.79;49.80;100404.66;4144302;28;20229;-69
2022/07/10 04:38:18;;;;;;;3.97;2.40;;;;;;;20.82;49.46;100398.03;4144603;28;20648;-68
2022/07/10 04:40:20;;;;;;;3.80;1.90;;;;;;;21.62;48.69;100364.44;4144364;28;20232;-69
2022/07/10 04:42:21;;;;;;;3.43;2.47;;;;;;;21.83;47.80;100371.41;4145028;28;20229;-69
2022/07/10 04:44:23;;;;;;;3.67;2.13;;;;;;;22.08;47.74;100363.31;4143554;28;20659;-68
2022/07/10 04:46:25;;;;;;;3.57;2.20;;;;;;;21.34;48.66;100398.94;4143231;28;20261;-68
2022/07/10 04:48:26;;;;;;;5.00;2.37;;;;;;;21.85;47.75;100375.56;4144884;28;20325;-69
2022/07/10 04:50:28;;;;;;;4.87;2.00;;;;;;;21.81;47.94;100371.63;4156864;28;20240;-68
2022/07/10 04:52:30;;;;;;;4.20;2.10;;;;;;;21.65;48.32;100375.69;4161063;28;20228;-69
2022/07/10 04:54:32;;;;;;;6.63;2.27;;;;;;;21.30;48.87;100386.03;4160696;28;20259;-68
2022/07/10 04:56:33;;;;;;;5.70;2.83;;;;;;;22.14;47.38;100367.03;4159703;28;20240;-69
2022/07/10 04:58:35;;;;;;;6.00;2.90;;;;;;;21.78;47.68;100392.88;4160816;28;20201;-68
2022/07/10 05:00:37;;;;;;;8.10;2.50;;;;;;;21.43;48.30;100399.50;4160487;28;20224;-67
2022/07/10 05:02:39;;;;;;;4.03;1.93;;;;;;;21.10;48.61;100426.66;4158473;28;20251;-67
2022/07/10 05:04:41;;;;;;;5.57;2.30;;;;;;;21.13;49.23;100402.72;4159909;28;20315;-69
2022/07/10 05:06:42;;;;;;;5.50;2.47;;;;;;;21.20;48.74;100407.28;4155063;28;20241;-69
2022/07/10 05:08:44;;;;;;;2.87;2.50;;;;;;;21.54;48.54;100387.16;4144007;28;20245;-68
2022/07/10 05:10:46;;;;;;;5.50;2.30;;;;;;;21.12;48.94;100405.66;4144899;28;20232;-68
2022/07/10 05:12:47;;;;;;;5.70;2.63;;;;;;;21.25;48.97;100411.00;4143549;28;20237;-69
2022/07/10 05:14:49;;;;;;;3.63;2.30;;;;;;;21.53;48.25;100407.16;4134417;28;20256;-69
2022/07/10 05:16:50;;;;;;;7.07;2.40;;;;;;;21.51;48.50;100399.25;4144561;28;20241;-68
2022/07/10 05:18:52;;;;;;;4.10;2.23;;;;;;;21.25;48.78;100412.91;4144569;28;20789;-68
2022/07/10 05:20:54;;;;;;;4.27;2.10;;;;;;;21.16;48.88;100398.78;4150291;28;20243;-69
2022/07/10 05:22:56;;;;;;;4.17;2.37;;;;;;;21.38;48.84;100403.88;4143951;28;20237;-69
2022/07/10 05:24:57;;;;;;;4.17;2.70;;;;;;;21.77;47.59;100381.25;4142790;28;20307;-68
2022/07/10 05:26:59;;;;;;;5.70;2.57;;;;;;;21.77;47.94;100391.25;4143793;28;20675;-68
2022/07/10 05:29:01;;;;;;;3.27;2.10;;;;;;;21.28;48.32;100421.41;4144001;28;20323;-69
2022/07/10 05:31:02;;;;;;;6.33;2.77;;;;;;;20.85;49.13;100438.13;4143441;28;20229;-67
2022/07/10 05:33:04;;;;;;;5.80;3.10;;;;;;;21.61;47.70;100408.78;4143715;28;20260;-69
2022/07/10 05:35:06;;;;;;;3.60;2.10;;;;;;;21.16;49.02;100423.94;4143930;28;20237;-68
2022/07/10 05:37:08;;;;;;;5.77;1.90;;;;;;;21.84;48.13;100386.59;4143209;28;20239;-68
2022/07/10 05:39:10;;;;;;;3.83;2.70;;;;;;;21.52;47.85;100408.19;4144274;28;21059;-68
2022/07/10 05:41:11;;;;;;;3.03;1.93;;;;;;;21.64;47.50;100411.91;4143657;28;20229;-69
2022/07/10 05:43:14;;;;;;;4.77;2.37;;;;;;;21.75;47.50;100415.81;4142537;28;20229;-69
2022/07/10 05:45:16;;;;;;;4.80;2.63;;;;;;;21.02;48.25;100437.72;4143002;28;20717;-69
2022/07/10 05:47:18;;;;;;;4.83;2.10;;;;;;;21.63;47.23;100417.53;4144303;28;20743;-69
2022/07/10 05:49:20;;;;;;;5.67;2.13;;;;;;;21.83;46.62;100418.28;4147264;28;20282;-68
2022/07/10 05:51:21;;;;;;;4.37;2.20;;;;;;;21.07;48.13;100430.63;4159143;28;20229;-68
2022/07/10 05:53:32;;;;;;;5.17;2.37;;;;;;;21.06;48.11;100439.78;4159898;28;20231;-68
2022/07/10 05:55:34;;;;;;;4.07;2.30;;;;;;;20.70;48.53;100435.66;4158462;28;20233;-69
2022/07/10 05:57:36;;;;;;;5.93;2.60;;;;;;;21.00;47.98;100405.47;4160580;28;20228;-68
2022/07/10 05:59:38;;;;;;;4.07;2.57;;;;;;;19.92;50.01;100438.06;4159310;28;21241;-68
2022/07/10 06:01:39;;;;;;;3.17;2.20;;;;;;;19.56;50.35;100418.44;4159297;28;20282;-68
2022/07/10 06:03:41;;;;;;;5.70;2.40;;;;;;;20.59;48.86;100384.97;4159538;28;20233;-69
2022/07/10 06:05:43;;;;;;;4.93;2.43;;;;;;;20.46;49.09;100395.78;4159016;28;20286;-69
2022/07/10 06:07:44;;;;;;;5.43;1.93;;;;;;;20.29;49.39;100406.16;4146059;28;20296;-69
2022/07/10 06:09:46;;;;;;;3.87;2.20;;;;;;;20.64;49.13;100393.25;4143371;28;20244;-68
2022/07/10 06:11:49;;;;;;;5.57;2.40;;;;;;;19.38;50.58;100445.94;4134955;28;20994;-68
2022/07/10 06:13:50;;;;;;;5.07;2.50;;;;;;;20.02;49.23;100406.09;4143165;28;20234;-69
2022/07/10 06:15:52;;;;;;;4.67;2.67;;;;;;;19.62;50.06;100428.44;4143800;28;20849;-68
2022/07/10 06:17:57;;;;;;;5.87;2.53;;;;;;;19.41;50.14;100433.94;4159036;28;20674;-69
2022/07/10 06:19:59;;;;;;;3.00;2.10;;;;;;;19.04;50.70;100444.94;4158929;28;20232;-69
2022/07/10 06:24:21;;;;;;;5.53;2.80;;;;;;;20.46;48.08;100414.69;4141915;28;20225;-67
2022/07/10 06:26:23;;;;;;;3.57;2.23;;;;;;;20.53;48.04;100397.41;4142628;28;20267;-69
2022/07/10 06:28:24;;;;;;;4.33;2.33;;;;;;;20.56;48.11;100418.59;4142339;28;20928;-69
2022/07/10 06:30:26;;;;;;;3.10;2.10;;;;;;;20.44;48.75;100414.88;4142714;28;20225;-69
2022/07/10 06:32:28;;;;;;;4.00;2.30;;;;;;;20.57;48.00;100419.47;4143345;28;20279;-68
2022/07/10 06:34:29;;;;;;;4.23;2.17;;;;;;;20.65;48.04;100415.69;4141694;28;20225;-69
2022/07/10 06:36:31;;;;;;;4.23;2.57;;;;;;;20.26;47.93;100474.91;4142013;28;20229;-68
2022/07/10 06:38:34;;;;;;;3.53;2.13;;;;;;;20.64;47.70;100431.09;4142827;28;20323;-69
2022/07/10 06:40:38;;;;;;;2.93;2.17;;;;;;;20.44;47.21;100460.81;4143122;28;20201;-69
2022/07/10 06:42:39;;;;;;;4.73;2.20;;;;;;;20.22;48.08;100463.66;4143130;28;20244;-69
2022/07/10 06:44:45;;;;;;;4.13;2.30;;;;;;;20.32;48.24;100444.38;4142239;28;20255;-68
2022/07/10 06:47:55;;;;;;;4.57;2.40;;;;;;;20.94;47.16;100433.34;4143091;28;20803;-68
2022/07/10 06:49:08;;;;;;;4.97;2.50;;;;;;;20.85;47.65;100446.22;4145486;28;20244;-69
2022/07/10 06:51:10;;;;;;;3.10;1.90;;;;;;;21.16;46.63;100426.66;4157446;28;20681;-68
2022/07/10 06:53:23;;;;;;;3.33;2.20;;;;;;;20.77;47.00;100432.97;4158778;28;20232;-68
2022/07/10 06:55:26;;;;;;;6.00;2.43;;;;;;;20.60;46.63;100457.69;4158282;28;20224;-69
2022/07/10 06:57:28;;;;;;;4.83;1.90;;;;;;;20.59;47.08;100447.91;4153032;28;20280;-68
2022/07/10 06:59:30;;;;;;;4.37;1.90;;;;;;;20.65;45.95;100467.03;4143053;28;20291;-68
2022/07/10 07:01:31;;;;;;;3.67;1.90;;;;;;;20.70;45.71;100459.13;4142578;28;20287;-69
2022/07/10 07:03:33;;;;;;;5.23;1.77;;;;;;;21.15;45.17;100451.19;4142206;28;20695;-69
2022/07/10 07:05:35;;;;;;;2.97;1.80;;;;;;;20.96;45.45;100461.03;4142151;28;20679;-69
2022/07/10 07:07:37;;;;;;;5.87;2.27;;;;;;;20.97;45.01;100455.41;4143124;28;20283;-68
2022/07/10 07:09:39;;;;;;;4.87;1.80;;;;;;;21.20;45.45;100442.44;4141786;28;20275;-69
2022/07/10 07:11:41;;;;;;;3.60;2.00;;;;;;;20.43;46.00;100500.50;4142858;28;20365;-69
2022/07/10 07:13:42;;;;;;;3.20;1.63;;;;;;;20.69;46.15;100452.91;4142026;28;20233;-68
2022/07/10 07:15:52;;;;;;;5.20;2.07;;;;;;;21.03;45.61;100453.72;4140443;28;20582;-69
2022/07/10 07:17:56;;;;;;;6.03;2.27;;;;;;;21.10;44.62;100465.34;4142957;28;20244;-68
2022/07/10 07:24:42;;;;;;;2.77;1.83;;;;;;;21.15;45.70;100472.81;4144907;28;20239;-69
2022/07/10 07:26:46;;;;;;;4.53;1.83;;;;;;;21.01;45.01;100468.50;4145243;28;20237;-69
2022/07/10 07:28:48;;;;;;;5.67;2.10;;;;;;;20.94;44.87;100487.41;4146252;28;20724;-68
2022/07/10 07:30:50;;;;;;;2.83;1.57;;;;;;;20.14;45.37;100533.22;4146538;28;20680;-68
2022/07/10 07:32:52;;;;;;;4.97;1.70;;;;;;;20.26;44.17;100531.59;4144958;28;20760;-68
2022/07/10 07:34:53;;;;;;;4.13;1.47;;;;;;;20.33;44.13;100526.22;4144203;28;20229;-69
2022/07/10 07:36:55;;;;;;;4.03;1.83;;;;;;;20.58;43.68;100521.06;4145479;28;20246;-70
2022/07/10 07:38:57;;;;;;;4.17;1.57;;;;;;;20.95;43.15;100502.59;4145637;28;20295;-71
2022/07/10 07:40:58;;;;;;;2.13;1.50;;;;;;;20.39;43.24;100525.41;4145816;28;20241;-70
2022/07/10 07:43:00;;;;;;;1.70;1.30;;;;;;;20.59;42.50;100533.56;4144425;28;20760;-69
2022/07/10 07:45:03;;;;;;;3.40;1.80;;;;;;;20.02;43.59;100522.19;4143335;28;20237;-71
2022/07/10 07:47:05;;;;;;;4.60;1.80;;;;;;;20.19;43.30;100523.47;4145537;28;20237;-71
2022/07/10 07:49:07;;;;;;;5.03;1.67;;;;;;;20.59;42.98;100490.31;4148128;28;20233;-70
2022/07/10 07:51:08;;;;;;;3.07;1.70;;;;;;;20.73;42.80;100486.56;4160631;28;20282;-70
2022/07/10 07:53:10;;;;;;;2.63;1.60;;;;;;;20.88;42.77;100513.38;4161840;28;20254;-70
2022/07/10 07:55:15;;;;;;;2.97;1.50;;;;;;;20.32;43.53;100536.22;4159804;28;20319;-70
2022/07/10 07:57:17;;;;;;;3.07;1.60;;;;;;;20.79;42.63;100520.88;4160836;28;20285;-70
2022/07/10 07:59:19;;;;;;;2.83;1.93;;;;;;;21.11;41.97;100521.09;4162182;28;20245;-71
2022/07/10 08:01:21;;;;;;;5.70;1.73;;;;;;;20.56;43.68;100515.88;4161769;28;20755;-70
2022/07/10 08:03:23;;;;;;;2.57;1.70;;;;;;;21.39;42.79;100471.28;4160827;28;20278;-70
2022/07/10 08:05:44;;;;;;;2.73;1.50;;;;;;;20.48;43.18;100504.44;4145145;28;20725;-70
2022/07/10 08:07:50;;;;;;;4.47;2.00;;;;;;;20.42;42.90;100504.22;4144926;28;20264;-69
2022/07/10 08:09:52;;;;;;;4.53;1.77;;;;;;;20.37;43.15;100487.81;4144793;28;20245;-71
2022/07/10 08:11:54;;;;;;;3.77;1.50;;;;;;;21.28;43.51;100475.50;4145427;28;20237;-70
2022/07/10 08:13:55;;;;;;;5.03;2.13;;;;;;;20.72;43.60;100489.47;4144536;28;20233;-70
2022/07/10 08:15:57;;;;;;;3.10;1.70;;;;;;;20.78;43.71;100469.72;4144586;28;20245;-69
2022/07/10 08:18:04;;;;;;;1.53;1.43;;;;;;;21.73;42.21;100467.47;4145714;28;20239;-69
2022/07/10 08:20:07;;;;;;;3.57;1.80;;;;;;;21.57;41.70;100494.97;4146245;28;20236;-69
2022/07/10 08:22:09;;;;;;;2.70;1.47;;;;;;;21.87;41.24;100514.22;4149995;28;20241;-69
2022/07/10 08:24:11;;;;;;;3.43;1.50;;;;;;;20.70;42.02;100537.50;4144939;28;20304;-69
2022/07/10 08:26:12;;;;;;;2.30;1.50;;;;;;;20.94;41.73;100520.66;4143933;28;20968;-70
2022/07/10 08:28:14;;;;;;;3.00;1.67;;;;;;;20.44;41.94;100555.34;4145302;28;20256;-69
2022/07/10 08:30:16;;;;;;;3.67;1.47;;;;;;;21.16;41.81;100488.03;4143669;28;20288;-69
2022/07/10 08:32:17;;;;;;;3.90;1.73;;;;;;;21.08;41.66;100508.00;4144204;28;20236;-69
2022/07/10 08:34:19;;;;;;;3.07;1.50;;;;;;;21.81;41.68;100485.31;4144541;28;20229;-69
2022/07/10 08:36:21;;;;;;;2.67;1.50;;;;;;;21.60;41.12;100508.06;4143395;28;20291;-69
2022/07/10 08:38:41;;;;;;;2.80;1.60;;;;;;;21.48;40.89;100507.09;4144965;28;20229;-70
2022/07/10 08:40:43;;;;;;;2.87;1.50;;;;;;;22.06;40.08;100493.50;4145124;28;20235;-69
2022/07/10 08:42:45;;;;;;;2.40;1.33;;;;;;;21.55;40.58;100513.28;4143404;28;20245;-68
2022/07/10 08:44:47;;;;;;;2.33;1.40;;;;;;;21.11;41.31;100509.47;4143900;28;20312;-69
2022/07/10 08:46:49;;;;;;;3.23;1.57;;;;;;;21.50;40.89;100513.09;4145342;28;20237;-70
2022/07/10 08:48:53;;;;;;;4.27;1.80;;;;;;;22.31;40.60;100502.78;4144397;28;20237;-69
2022/07/10 08:51:01;;;;;;;3.47;1.40;;;;;;;22.12;40.22;100493.69;4160814;28;20703;-69
2022/07/10 08:53:16;;;;;;;3.83;2.00;;;;;;;21.35;40.36;100508.75;4160966;28;20664;-69
2022/07/10 08:55:19;;;;;;;2.43;1.70;;;;;;;21.26;39.94;100542.50;4160326;28;20233;-69
2022/07/10 08:57:23;;;;;;;2.80;1.63;;;;;;;21.58;40.08;100510.16;4159861;28;20759;-70
2022/07/10 08:59:24;;;;;;;3.80;1.83;;;;;;;21.51;39.60;100512.03;4160875;28;20282;-69
2022/07/10 09:01:32;;;;;;;4.10;1.53;;;;;;;21.06;40.22;100525.47;4160993;28;20235;-69
2022/07/10 09:03:34;;;;;;;3.87;1.57;;;;;;;20.92;40.45;100503.84;4160110;28;20228;-69
2022/07/10 09:05:36;;;;;;;2.20;1.47;;;;;;;22.22;39.18;100505.72;4159486;28;20796;-69
2022/07/10 09:07:41;;;;;;;3.80;1.70;;;;;;;21.58;39.98;100526.41;4147974;28;20283;-70
2022/07/10 09:09:57;;;;;;;1.97;1.70;;;;;;;20.81;40.70;100517.97;4144061;28;20245;-69
2022/07/10 09:11:59;;;;;;;3.87;1.67;;;;;;;20.85;41.08;100499.47;4143851;28;20674;-70
2022/07/10 09:14:04;;;;;;;4.63;1.60;;;;;;;21.32;40.26;100487.53;4144016;28;20260;-69
2022/07/10 09:16:06;;;;;;;4.03;1.70;;;;;;;21.61;40.36;100495.38;4144098;28;20237;-70
2022/07/10 09:18:08;;;;;;;2.87;1.40;;;;;;;22.24;40.26;100464.88;4144085;28;20241;-70
2022/07/10 09:20:24;;;;;;;4.23;1.73;;;;;;;22.48;39.30;100463.25;4146561;28;20244;-70
2022/07/10 09:22:26;;;;;;;3.03;1.43;;;;;;;22.60;39.62;100471.50;4146139;28;20649;-69
2022/07/10 09:24:44;;;;;;;3.47;1.58;;;;;;;22.69;39.10;100470.16;4144233;28;20225;-69
2022/07/10 09:27:05;;;;;;;2.55;1.30;;;;;;;22.03;39.81;100534.56;4144294;28;20252;-69
2022/07/10 09:29:08;;;;;;;3.25;1.55;;;;;;;22.55;39.50;100477.56;4142895;28;20237;-70
2022/07/10 09:31:09;;;;;;;2.47;1.85;;;;;;;22.46;39.13;100493.28;4144341;28;20664;-70
2022/07/10 09:33:30;;;;;;;3.63;1.48;;;;;;;22.33;39.31;100525.06;4143220;28;20233;-69
2022/07/10 09:37:51;;;;;;;2.70;1.48;;;;;;;22.70;39.43;100487.28;4144093;28;20242;-69
2022/07/10 09:39:57;;;;;;;1.58;1.20;;;;;;;22.50;39.97;100482.81;4143535;28;20241;-69
2022/07/10 09:41:59;;;;;;;2.35;1.45;;;;;;;22.53;40.02;100474.25;4142623;28;20241;-70
2022/07/10 09:44:07;;;;;;;3.53;1.40;;;;;;;22.32;38.78;100520.69;4143762;28;20233;-69